createdAt,value
2023-05-05T00:25:46.521Z,17.38
2023-05-05T00:40:38.974Z,17.36
2023-05-05T00:55:31.424Z,17.24
2023-05-05T01:10:26.424Z,17.13
2023-05-05T01:25:34.717Z,17.07
2023-05-05T01:40:31.418Z,17.15
2023-05-05T02:25:38.938Z,17.21
2023-05-05T03:40:01.807Z,17.02
2023-05-05T04:09:47.408Z,17.03
2023-05-05T04:24:41.823Z,17.11
2023-05-05T04:39:33.953Z,17.33
2023-05-05T04:54:25.624Z,17.45
2023-05-05T05:09:18.749Z,17.60
2023-05-05T05:24:12.137Z,17.91
2023-05-05T05:39:06.035Z,18.15
2023-05-05T05:53:59.012Z,18.38
2023-05-05T06:08:54.402Z,18.64
2023-05-05T06:23:46.150Z,18.95
2023-05-05T06:38:38.304Z,19.19
2023-05-05T06:53:32.031Z,19.47
2023-05-05T07:08:27.090Z,19.80
2023-05-05T07:23:20.605Z,19.86
2023-05-05T07:38:13.371Z,20.02
2023-05-05T07:53:13.713Z,20.12
2023-05-05T08:07:58.380Z,20.34
2023-05-05T08:22:51.764Z,20.38
2023-05-05T08:37:46.808Z,20.86
2023-05-05T08:52:45.964Z,21.36
2023-05-05T09:07:43.693Z,21.61
2023-05-05T09:22:41.202Z,21.67
2023-05-05T09:37:39.793Z,21.92
2023-05-05T09:52:34.072Z,22.23
2023-05-05T10:07:28.184Z,22.35
2023-05-05T10:22:20.690Z,22.42
2023-05-05T10:37:13.686Z,22.55
2023-05-05T10:52:13.205Z,23.09
2023-05-05T11:07:14.706Z,23.13
2023-05-05T11:22:04.368Z,23.34
2023-05-05T11:36:58.141Z,23.91
2023-05-05T11:52:06.694Z,24.28
2023-05-05T12:07:06.534Z,24.22
2023-05-05T12:21:58.281Z,24.49
2023-05-05T12:36:52.098Z,24.73
2023-05-05T12:51:52.778Z,24.87
2023-05-05T13:07:14.839Z,25.32
2023-05-05T13:22:11.664Z,25.18
2023-05-05T13:37:21.411Z,25.35
2023-05-05T13:52:09.390Z,25.65
2023-05-05T14:07:05.290Z,26.28
2023-05-05T14:21:59.915Z,26.36
2023-05-05T14:36:50.554Z,25.41
2023-05-05T14:51:39.186Z,24.73
2023-05-05T15:06:29.700Z,24.37
2023-05-05T15:21:22.713Z,23.14
2023-05-05T15:36:09.912Z,21.34
2023-05-05T15:50:59.746Z,19.70
2023-05-05T16:05:51.016Z,19.10
2023-05-05T16:20:43.195Z,18.88
2023-05-05T16:35:35.760Z,18.83
2023-05-05T16:50:28.303Z,19.08
2023-05-05T17:05:21.448Z,18.93
2023-05-05T17:20:13.836Z,18.81
2023-05-05T17:35:06.535Z,18.72
2023-05-05T18:05:08.514Z,18.46
2023-05-05T18:19:56.576Z,18.46
2023-05-05T18:34:48.663Z,18.38
2023-05-05T18:49:41.342Z,18.22
2023-05-05T19:04:33.730Z,18.12
2023-05-05T19:19:26.264Z,17.78
2023-05-05T19:34:18.054Z,17.59
2023-05-05T19:49:09.576Z,17.54
2023-05-05T20:04:01.024Z,17.49
2023-05-05T20:19:10.330Z,17.35
2023-05-05T20:33:55.875Z,17.13
2023-05-05T20:48:50.942Z,17.13
2023-05-05T21:03:41.894Z,17.10
2023-05-05T21:18:34.468Z,17.12
2023-05-05T21:33:26.579Z,17.04
2023-05-05T21:48:17.978Z,16.95
2023-05-05T22:03:13.311Z,16.74
2023-05-05T22:18:09.926Z,16.70
2023-05-05T22:33:00.886Z,16.57
2023-05-05T22:47:52.535Z,16.56
2023-05-05T23:02:45.471Z,16.53
2023-05-05T23:17:37.652Z,16.53
2023-05-05T23:32:29.115Z,16.43
2023-05-05T23:47:22.081Z,16.36
